createdAt,value
2023-05-07T00:00:09.546Z,97.40
2023-05-07T00:03:13.350Z,97.30
2023-05-07T00:06:16.253Z,97.50
2023-05-07T00:09:18.646Z,97.30
2023-05-07T00:12:20.841Z,97.20
2023-05-07T00:15:23.335Z,97.30
2023-05-07T00:18:26.277Z,97.50
2023-05-07T00:21:28.644Z,97.60
2023-05-07T00:24:32.071Z,97.50
2023-05-07T00:27:34.882Z,97.40
2023-05-07T00:30:37.254Z,97.20
2023-05-07T00:33:40.112Z,97.20
2023-05-07T00:36:42.271Z,97.20
2023-05-07T00:39:44.608Z,97.10
2023-05-07T00:42:48.200Z,97.00
2023-05-07T00:45:50.991Z,96.90
2023-05-07T00:48:54.765Z,97.20
2023-05-07T00:51:57.435Z,97.40
2023-05-07T00:55:04.066Z,97.40
2023-05-07T00:58:06.859Z,97.50
2023-05-07T01:01:09.244Z,97.60
2023-05-07T01:04:11.554Z,97.50
2023-05-07T01:07:14.426Z,97.40
2023-05-07T01:10:17.126Z,97.40
2023-05-07T01:13:20.708Z,97.30
2023-05-07T01:16:23.168Z,97.40
2023-05-07T01:19:25.411Z,97.40
2023-05-07T01:22:35.494Z,97.30
2023-05-07T01:25:37.646Z,97.60
2023-05-07T01:28:40.402Z,97.60
2023-05-07T01:31:45.444Z,97.60
2023-05-07T01:34:49.352Z,97.60
2023-05-07T01:37:52.068Z,97.80
2023-05-07T01:40:54.517Z,97.90
2023-05-07T01:43:59.260Z,97.60
2023-05-07T01:47:03.327Z,97.70
2023-05-07T01:50:09.531Z,97.80
2023-05-07T01:53:12.362Z,97.70
2023-05-07T01:56:16.135Z,97.80
2023-05-07T01:59:18.471Z,97.90
2023-05-07T02:02:20.676Z,97.90
2023-05-07T02:05:22.852Z,98.00
2023-05-07T02:08:24.945Z,97.90
2023-05-07T02:11:27.140Z,98.20
2023-05-07T02:14:29.275Z,98.00
2023-05-07T02:17:33.051Z,98.00
2023-05-07T02:20:35.182Z,98.10
2023-05-07T02:23:39.302Z,98.10
2023-05-07T02:26:42.491Z,98.00
2023-05-07T02:29:44.663Z,97.90
2023-05-07T02:32:46.772Z,98.20
2023-05-07T02:35:48.850Z,98.10
2023-05-07T02:38:51.042Z,98.20
2023-05-07T02:41:53.601Z,98.30
2023-05-07T02:44:55.631Z,98.20
2023-05-07T02:47:57.913Z,98.50
2023-05-07T02:51:00.751Z,98.50
2023-05-07T02:54:03.164Z,98.40
2023-05-07T02:57:05.294Z,98.40
2023-05-07T03:00:19.109Z,98.30
2023-05-07T03:03:21.917Z,98.10
2023-05-07T03:06:24.127Z,98.30
2023-05-07T03:09:26.297Z,98.40
2023-05-07T03:12:28.413Z,98.40
2023-05-07T03:15:30.880Z,98.60
2023-05-07T03:18:33.104Z,98.60
2023-05-07T03:21:35.516Z,98.50
2023-05-07T03:24:37.577Z,98.60
2023-05-07T03:27:39.891Z,98.60
2023-05-07T03:30:42.103Z,98.50
2023-05-07T03:33:55.513Z,98.50
2023-05-07T03:36:57.550Z,98.70
2023-05-07T03:39:59.648Z,98.80
2023-05-07T03:43:02.119Z,98.60
2023-05-07T03:46:04.364Z,98.60
2023-05-07T03:49:06.842Z,98.60
2023-05-07T03:52:08.989Z,98.80
2023-05-07T03:55:11.138Z,98.70
2023-05-07T03:58:13.189Z,98.80
2023-05-07T04:01:15.358Z,98.80
2023-05-07T04:04:17.931Z,98.80
2023-05-07T04:07:20.156Z,98.80
2023-05-07T04:10:22.313Z,98.70
2023-05-07T04:13:26.313Z,99.10
2023-05-07T04:16:28.558Z,98.80
2023-05-07T04:19:30.731Z,98.90
2023-05-07T04:22:32.801Z,99.00
2023-05-07T04:25:35.299Z,99.10
2023-05-07T04:28:37.633Z,99.20
2023-05-07T04:31:39.916Z,99.40
2023-05-07T04:34:42.031Z,99.70
2023-05-07T04:37:47.024Z,99.80
2023-05-07T04:40:49.204Z,99.90
2023-05-07T04:43:51.285Z,99.80
2023-05-07T04:46:53.589Z,99.80
2023-05-07T04:49:55.813Z,99.70
2023-05-07T04:52:58.860Z,99.90
2023-05-07T04:56:01.042Z,99.90
2023-05-07T04:59:03.173Z,99.90
2023-05-07T05:02:08.213Z,99.90
2023-05-07T05:05:11.217Z,99.90
2023-05-07T05:08:13.349Z,99.90
2023-05-07T05:11:16.559Z,99.90
2023-05-07T05:14:18.684Z,99.90
2023-05-07T05:17:20.822Z,99.90
2023-05-07T05:20:23.565Z,99.90
2023-05-07T05:23:25.907Z,99.90
2023-05-07T05:26:28.051Z,99.90
2023-05-07T05:29:31.161Z,99.90
2023-05-07T05:32:34.774Z,99.90
2023-05-07T05:35:37.004Z,99.90
2023-05-07T05:38:39.843Z,99.90
2023-05-07T05:41:41.892Z,99.90
2023-05-07T05:44:44.215Z,99.90
2023-05-07T05:47:46.579Z,99.90
2023-05-07T05:50:48.675Z,99.90
2023-05-07T05:53:50.780Z,99.90
2023-05-07T05:56:52.823Z,99.90
2023-05-07T05:59:55.274Z,99.90
2023-05-07T06:02:57.566Z,99.90
2023-05-07T06:06:01.151Z,99.90
2023-05-07T06:09:03.804Z,99.90
2023-05-07T06:12:07.296Z,99.90
2023-05-07T06:15:09.759Z,99.90
2023-05-07T06:18:12.079Z,99.70
2023-05-07T06:21:16.206Z,99.00
2023-05-07T06:24:18.607Z,98.40
2023-05-07T06:27:20.668Z,97.40
2023-05-07T06:30:22.779Z,96.50
2023-05-07T06:33:25.130Z,95.90
2023-05-07T06:36:27.834Z,94.80
2023-05-07T06:39:29.927Z,94.00
2023-05-07T06:42:31.959Z,93.90
2023-05-07T06:45:34.369Z,93.40
2023-05-07T06:48:36.469Z,92.80
2023-05-07T06:51:38.572Z,93.00
2023-05-07T06:54:41.015Z,91.70
2023-05-07T06:57:43.317Z,91.50
2023-05-07T07:00:46.944Z,91.10
2023-05-07T07:03:49.121Z,90.10
2023-05-07T07:06:53.024Z,88.20
2023-05-07T07:09:55.074Z,86.30
2023-05-07T07:12:57.182Z,86.60
2023-05-07T07:16:00.896Z,84.00
2023-05-07T07:19:03.075Z,82.20
2023-05-07T07:22:05.234Z,81.80
2023-05-07T07:25:08.301Z,80.20
2023-05-07T07:28:12.803Z,82.00
2023-05-07T07:31:15.311Z,81.20
2023-05-07T07:34:17.670Z,81.70
2023-05-07T07:37:19.801Z,79.40
2023-05-07T07:40:22.060Z,80.00
2023-05-07T07:43:24.194Z,77.80
2023-05-07T07:46:27.769Z,79.20
2023-05-07T07:49:30.111Z,77.00
2023-05-07T07:52:32.184Z,77.90
2023-05-07T07:55:38.935Z,77.30
2023-05-07T07:58:41.067Z,77.30
2023-05-07T08:01:43.354Z,76.70
2023-05-07T08:04:45.758Z,76.10
2023-05-07T08:07:53.043Z,75.10
2023-05-07T08:10:55.502Z,75.30
2023-05-07T08:13:59.678Z,73.20
2023-05-07T08:17:05.295Z,71.00
2023-05-07T08:20:08.790Z,70.60
2023-05-07T08:23:11.242Z,68.20
2023-05-07T08:26:13.653Z,68.10
2023-05-07T08:29:16.010Z,68.60
2023-05-07T08:32:18.291Z,66.50
2023-05-07T08:35:20.671Z,65.90
2023-05-07T08:38:23.577Z,64.30
2023-05-07T08:41:25.756Z,63.90
2023-05-07T08:44:29.403Z,63.80
2023-05-07T08:47:41.189Z,63.40
2023-05-07T08:50:43.685Z,63.70
2023-05-07T08:53:47.165Z,61.50
2023-05-07T08:56:49.642Z,62.50
2023-05-07T08:59:51.891Z,61.40
2023-05-07T09:02:57.421Z,62.40
2023-05-07T09:05:59.756Z,60.30
2023-05-07T09:09:02.705Z,61.90
2023-05-07T09:12:05.100Z,61.00
2023-05-07T09:15:08.004Z,59.30
2023-05-07T09:18:10.134Z,58.30
2023-05-07T09:21:15.998Z,57.20
2023-05-07T09:24:18.247Z,59.00
2023-05-07T09:27:20.380Z,57.60
2023-05-07T09:30:22.883Z,58.40
2023-05-07T09:33:28.584Z,57.30
2023-05-07T09:36:30.722Z,58.80
2023-05-07T09:39:47.297Z,60.50
2023-05-07T09:42:50.886Z,59.70
2023-05-07T09:45:53.534Z,60.80
2023-05-07T09:48:59.062Z,59.90
2023-05-07T09:52:02.959Z,60.30
2023-05-07T09:55:07.170Z,58.40
2023-05-07T09:58:15.197Z,56.70
2023-05-07T10:01:20.406Z,58.20
2023-05-07T10:04:22.901Z,58.90
2023-05-07T10:07:26.495Z,58.20
2023-05-07T10:10:29.116Z,57.20
2023-05-07T10:13:39.081Z,55.90
2023-05-07T10:16:42.188Z,54.20
2023-05-07T10:19:46.313Z,55.00
2023-05-07T10:22:50.095Z,55.90
2023-05-07T10:26:00.429Z,54.30
2023-05-07T10:29:13.538Z,54.20
2023-05-07T10:32:34.285Z,55.40
2023-05-07T10:35:45.163Z,53.60
2023-05-07T10:38:47.857Z,54.60
2023-05-07T10:41:51.587Z,52.90
2023-05-07T10:44:53.957Z,55.20
2023-05-07T10:48:28.910Z,54.50
2023-05-07T10:51:33.670Z,55.20
2023-05-07T10:54:37.581Z,55.50
2023-05-07T10:57:40.134Z,54.80
2023-05-07T11:00:43.911Z,53.10
2023-05-07T11:04:15.129Z,55.20
2023-05-07T11:07:26.654Z,55.90
2023-05-07T11:10:53.774Z,56.70
2023-05-07T11:13:56.093Z,56.20
2023-05-07T11:17:05.025Z,55.80
2023-05-07T11:20:07.712Z,57.70
2023-05-07T11:23:29.915Z,57.10
2023-05-07T11:26:43.223Z,58.90
2023-05-07T11:29:48.705Z,58.60
2023-05-07T11:32:51.046Z,57.90
2023-05-07T11:35:57.255Z,60.00
2023-05-07T11:38:59.734Z,61.20
2023-05-07T11:42:02.176Z,63.60
2023-05-07T11:45:05.498Z,63.80
2023-05-07T11:48:07.968Z,65.10
2023-05-07T11:51:12.378Z,65.90
2023-05-07T11:54:17.360Z,66.10
2023-05-07T11:57:21.081Z,66.60
2023-05-07T12:00:23.398Z,67.00
2023-05-07T12:03:25.801Z,67.40
2023-05-07T12:06:28.193Z,67.90
2023-05-07T12:09:30.921Z,67.80
2023-05-07T12:12:41.410Z,68.80
2023-05-07T12:15:44.361Z,69.90
2023-05-07T12:18:47.943Z,69.80
2023-05-07T12:21:50.578Z,69.80
2023-05-07T12:24:59.627Z,71.60
2023-05-07T12:28:06.309Z,71.90
2023-05-07T12:31:17.069Z,72.30
2023-05-07T12:34:19.344Z,71.40
2023-05-07T12:37:30.448Z,71.00
2023-05-07T12:40:39.743Z,71.50
2023-05-07T12:43:45.567Z,71.30
2023-05-07T12:46:49.016Z,72.10
2023-05-07T12:49:52.710Z,72.60
2023-05-07T12:52:56.175Z,71.20
2023-05-07T12:56:00.818Z,71.30
2023-05-07T12:59:02.908Z,71.80
2023-05-07T13:02:05.506Z,72.20
2023-05-07T13:05:09.822Z,71.50
2023-05-07T13:08:12.181Z,70.60
2023-05-07T13:11:14.743Z,70.10
2023-05-07T13:14:17.189Z,71.40
2023-05-07T13:17:19.994Z,72.20
2023-05-07T13:20:22.165Z,72.60
2023-05-07T13:23:24.734Z,72.60
2023-05-07T13:26:27.408Z,71.80
2023-05-07T13:29:31.296Z,71.60
2023-05-07T13:32:33.488Z,70.60
2023-05-07T13:35:36.465Z,70.60
2023-05-07T13:38:38.598Z,70.70
2023-05-07T13:41:41.066Z,71.90
2023-05-07T13:44:44.924Z,70.20
2023-05-07T13:47:48.180Z,69.30
2023-05-07T13:50:50.451Z,69.80
2023-05-07T13:53:53.623Z,70.40
2023-05-07T13:56:55.958Z,69.40
2023-05-07T13:59:58.082Z,67.50
2023-05-07T14:03:00.426Z,68.70
2023-05-07T14:06:02.698Z,68.60
2023-05-07T14:09:05.222Z,69.90
2023-05-07T14:12:07.668Z,70.10
2023-05-07T14:15:10.100Z,70.60
2023-05-07T14:18:12.212Z,71.30
2023-05-07T14:21:15.145Z,71.30
2023-05-07T14:24:27.200Z,70.70
2023-05-07T14:27:36.823Z,70.70
2023-05-07T14:30:38.956Z,70.00
2023-05-07T14:33:42.513Z,69.80
2023-05-07T14:36:45.297Z,70.00
2023-05-07T14:39:49.711Z,68.80
2023-05-07T14:42:53.576Z,68.80
2023-05-07T14:46:21.835Z,68.00
2023-05-07T14:49:24.834Z,67.50
2023-05-07T14:52:27.099Z,67.20
2023-05-07T14:55:29.181Z,64.90
2023-05-07T14:58:31.583Z,67.00
2023-05-07T15:01:35.429Z,66.10
2023-05-07T15:04:39.262Z,65.10
2023-05-07T15:07:41.479Z,67.70
2023-05-07T15:10:43.716Z,67.80
2023-05-07T15:13:45.935Z,67.80
2023-05-07T15:16:48.242Z,71.90
2023-05-07T15:19:53.027Z,72.10
2023-05-07T15:22:57.039Z,71.20
2023-05-07T15:25:59.467Z,70.90
2023-05-07T15:29:04.252Z,71.50
2023-05-07T15:32:06.942Z,72.20
2023-05-07T15:35:10.935Z,71.50
2023-05-07T15:38:14.234Z,71.90
2023-05-07T15:41:16.440Z,72.30
2023-05-07T15:44:29.735Z,72.30
2023-05-07T15:47:35.737Z,71.90
2023-05-07T15:50:38.470Z,70.70
2023-05-07T15:53:41.268Z,71.00
2023-05-07T15:56:43.329Z,70.90
2023-05-07T15:59:45.634Z,70.50
2023-05-07T16:02:48.397Z,70.50
2023-05-07T16:05:50.552Z,70.60
2023-05-07T16:08:52.558Z,71.10
2023-05-07T16:11:54.667Z,70.60
2023-05-07T16:14:57.036Z,70.90
2023-05-07T16:17:59.772Z,71.00
2023-05-07T16:21:01.926Z,70.50
2023-05-07T16:24:04.480Z,70.40
2023-05-07T16:27:07.820Z,70.10
2023-05-07T16:30:10.820Z,70.20
2023-05-07T16:33:13.113Z,70.90
2023-05-07T16:36:15.232Z,70.00
2023-05-07T16:39:20.478Z,68.90
2023-05-07T16:42:22.613Z,69.40
2023-05-07T16:45:24.674Z,68.90
2023-05-07T16:48:27.040Z,68.80
2023-05-07T16:51:29.454Z,69.40
2023-05-07T16:54:31.506Z,68.10
2023-05-07T16:57:33.510Z,70.00
2023-05-07T17:00:48.995Z,71.00
2023-05-07T17:03:53.518Z,70.10
2023-05-07T17:06:57.045Z,69.30
2023-05-07T17:09:59.103Z,69.60
2023-05-07T17:13:01.377Z,68.90
2023-05-07T17:16:03.948Z,67.70
2023-05-07T17:19:06.370Z,68.60
2023-05-07T17:22:08.879Z,70.00
2023-05-07T17:25:14.955Z,69.50
2023-05-07T17:28:17.229Z,68.70
2023-05-07T17:31:19.634Z,70.00
2023-05-07T17:34:21.854Z,69.50
2023-05-07T17:37:24.217Z,69.40
2023-05-07T17:40:26.908Z,69.80
2023-05-07T17:43:29.054Z,70.80
2023-05-07T17:46:31.547Z,70.60
2023-05-07T17:49:35.777Z,71.00
2023-05-07T17:52:38.497Z,71.20
2023-05-07T17:55:45.083Z,72.10
2023-05-07T17:58:58.653Z,72.10
2023-05-07T18:02:01.040Z,71.80
2023-05-07T18:05:03.665Z,72.40
2023-05-07T18:08:07.750Z,71.60
2023-05-07T18:11:10.202Z,72.00
2023-05-07T18:14:12.367Z,72.10
2023-05-07T18:17:14.707Z,71.30
2023-05-07T18:20:17.117Z,70.80
2023-05-07T18:23:19.238Z,71.40
2023-05-07T18:26:21.525Z,70.90
2023-05-07T18:29:23.981Z,71.60
2023-05-07T18:32:26.446Z,72.50
2023-05-07T18:35:32.715Z,72.70
2023-05-07T18:38:35.091Z,73.00
2023-05-07T18:41:37.501Z,72.90
2023-05-07T18:44:39.915Z,72.00
2023-05-07T18:47:42.218Z,71.80
2023-05-07T18:50:45.250Z,72.40
2023-05-07T18:53:47.328Z,73.80
2023-05-07T18:56:49.747Z,74.10
2023-05-07T18:59:57.317Z,75.00
2023-05-07T19:02:59.439Z,75.70
2023-05-07T19:06:03.177Z,77.40
2023-05-07T19:09:05.510Z,78.20
2023-05-07T19:12:08.226Z,78.70
2023-05-07T19:15:11.197Z,80.20
2023-05-07T19:18:14.113Z,80.20
2023-05-07T19:21:16.759Z,80.40
2023-05-07T19:24:19.164Z,80.70
2023-05-07T19:27:29.795Z,81.30
2023-05-07T19:30:32.620Z,81.70
2023-05-07T19:33:34.702Z,82.30
2023-05-07T19:36:38.306Z,83.70
2023-05-07T19:39:40.766Z,83.10
2023-05-07T19:42:43.062Z,83.80
2023-05-07T19:45:45.203Z,84.20
2023-05-07T19:48:47.368Z,85.20
2023-05-07T19:51:49.548Z,85.30
2023-05-07T19:54:51.673Z,85.30
2023-05-07T19:57:53.864Z,86.10
2023-05-07T20:00:55.865Z,87.30
2023-05-07T20:03:58.402Z,85.90
2023-05-07T20:07:00.890Z,86.60
2023-05-07T20:10:03.367Z,86.00
2023-05-07T20:13:05.777Z,85.90
2023-05-07T20:16:08.300Z,85.50
2023-05-07T20:19:10.654Z,84.90
2023-05-07T20:22:13.090Z,85.10
2023-05-07T20:25:24.288Z,85.00
2023-05-07T20:28:26.456Z,84.20
2023-05-07T20:31:28.568Z,84.40
2023-05-07T20:34:30.590Z,84.00
2023-05-07T20:37:35.220Z,84.10
2023-05-07T20:40:38.037Z,84.20
2023-05-07T20:43:40.463Z,84.20
2023-05-07T20:46:43.953Z,84.80
2023-05-07T20:49:53.298Z,85.10
2023-05-07T20:52:55.549Z,85.10
2023-05-07T20:56:00.272Z,85.10
2023-05-07T20:59:02.551Z,85.40
2023-05-07T21:02:04.733Z,85.40
2023-05-07T21:05:07.268Z,85.10
2023-05-07T21:08:09.886Z,84.70
2023-05-07T21:11:13.119Z,84.60
2023-05-07T21:14:15.649Z,84.70
2023-05-07T21:17:17.757Z,84.40
2023-05-07T21:20:19.986Z,85.10
2023-05-07T21:23:22.057Z,85.90
2023-05-07T21:26:24.341Z,85.60
2023-05-07T21:29:27.083Z,85.70
2023-05-07T21:32:30.043Z,85.70
2023-05-07T21:35:32.208Z,85.70
2023-05-07T21:38:34.336Z,85.60
2023-05-07T21:41:36.755Z,85.50
2023-05-07T21:44:48.251Z,85.40
2023-05-07T21:47:50.606Z,84.20
2023-05-07T21:51:03.366Z,84.20
2023-05-07T21:54:07.129Z,82.40
2023-05-07T21:57:10.125Z,82.60
2023-05-07T22:00:13.284Z,81.70
2023-05-07T22:03:15.998Z,81.50
2023-05-07T22:06:21.904Z,81.00
2023-05-07T22:09:24.865Z,80.40
2023-05-07T22:12:26.935Z,79.80
2023-05-07T22:15:29.065Z,80.10
2023-05-07T22:18:33.132Z,80.00
2023-05-07T22:21:36.187Z,79.80
2023-05-07T22:24:38.852Z,79.70
2023-05-07T22:27:41.387Z,80.10
2023-05-07T22:30:43.836Z,80.50
2023-05-07T22:33:46.183Z,80.50
2023-05-07T22:36:48.346Z,81.10
2023-05-07T22:39:50.609Z,81.20
2023-05-07T22:42:52.692Z,82.40
2023-05-07T22:46:01.599Z,82.60
2023-05-07T22:49:03.992Z,83.00
2023-05-07T22:52:06.315Z,83.30
2023-05-07T22:55:08.684Z,83.70
2023-05-07T22:58:10.854Z,83.70
2023-05-07T23:01:15.761Z,83.80
2023-05-07T23:04:18.216Z,84.20
2023-05-07T23:07:20.212Z,84.50
2023-05-07T23:10:23.272Z,85.30
2023-05-07T23:13:25.556Z,85.70
2023-05-07T23:16:28.944Z,87.10
2023-05-07T23:19:31.581Z,87.60
2023-05-07T23:22:33.814Z,87.30
2023-05-07T23:25:36.429Z,87.80
2023-05-07T23:28:38.437Z,87.80
2023-05-07T23:31:40.599Z,88.50
2023-05-07T23:34:42.884Z,88.60
2023-05-07T23:37:47.991Z,88.90
2023-05-07T23:40:50.232Z,88.80
2023-05-07T23:43:52.435Z,89.10
2023-05-07T23:46:54.797Z,89.70
2023-05-07T23:49:56.987Z,90.00
2023-05-07T23:52:59.114Z,90.10
2023-05-07T23:56:01.414Z,90.20
2023-05-07T23:59:04.589Z,90.60
